Time;durP1;ratioP1;P1;durP2;ratioP2;P2;SDS_P1;SDS_P2;PMS_P1;PMS_P2;Temp;Humidity;BMP_temperature;BMP_pressure;BME280_temperature;BME280_humidity;BME280_pressure;Samples;Min_cycle;Max_cycle;Signal;HPM_P1;HPM_P2
2021/06/27 00:00:41;;;;;;;37.75;31.25;;;;;;;;;;2081990;28;20180;-59
2021/06/27 00:01:41;;;;;;;38.33;33.83;;;;;;;;;;2080294;28;20251;-58
2021/06/27 00:02:41;;;;;;;41.50;34.63;;;;;;;;;;2081362;28;20184;-57
2021/06/27 00:03:42;;;;;;;36.80;30.75;;;;;;;;;;2079705;28;20322;-56
2021/06/27 00:04:42;;;;;;;37.60;33.55;;;;;;;;;;2082317;28;20208;-57
2021/06/27 00:05:43;;;;;;;38.40;33.72;;;;;;;;;;2074958;28;20661;-61
2021/06/27 00:06:43;;;;;;;38.03;33.50;;;;;;;;;;2081870;28;20188;-60
2021/06/27 00:07:43;;;;;;;40.80;33.72;;;;;;;;;;2078095;28;20199;-58
2021/06/27 00:08:44;;;;;;;37.80;33.75;;;;;;;;;;2082659;28;20192;-57
2021/06/27 00:09:45;;;;;;;42.13;35.08;;;;;;;;;;2065894;28;20178;-62
2021/06/27 00:10:46;;;;;;;40.33;36.03;;;;;;;;;;2075636;28;20253;-55
2021/06/27 00:11:46;;;;;;;39.38;34.97;;;;;;;;;;2081538;28;20710;-56
2021/06/27 00:12:46;;;;;;;43.13;36.75;;;;;;;;;;2071048;28;20174;-55
2021/06/27 00:13:48;;;;;;;39.30;35.05;;;;;;;;;;2081904;28;20173;-61
2021/06/27 00:14:48;;;;;;;38.10;33.90;;;;;;;;;;2070685;28;20213;-56
2021/06/27 00:15:49;;;;;;;41.30;35.03;;;;;;;;;;2081680;28;20171;-53
2021/06/27 00:16:52;;;;;;;42.35;36.58;;;;;;;;;;2069640;28;20186;-56
2021/06/27 00:17:54;;;;;;;41.00;35.65;;;;;;;;;;2080708;28;20673;-53
2021/06/27 00:18:55;;;;;;;43.45;36.20;;;;;;;;;;2075055;28;20177;-57
2021/06/27 00:19:55;;;;;;;41.63;34.72;;;;;;;;;;2081584;28;20184;-58
2021/06/27 00:20:57;;;;;;;43.05;36.15;;;;;;;;;;2070192;28;20177;-59
2021/06/27 00:21:57;;;;;;;39.35;35.13;;;;;;;;;;2080226;28;20165;-57
2021/06/27 00:22:57;;;;;;;39.88;35.58;;;;;;;;;;2069483;28;20988;-59
2021/06/27 00:23:58;;;;;;;40.85;35.30;;;;;;;;;;2079972;28;20607;-58
2021/06/27 00:24:58;;;;;;;42.90;34.97;;;;;;;;;;2069038;28;20272;-57
2021/06/27 00:25:59;;;;;;;42.58;35.13;;;;;;;;;;2077821;28;20171;-61
2021/06/27 00:26:59;;;;;;;41.60;35.47;;;;;;;;;;2076219;28;20177;-57
2021/06/27 00:28:00;;;;;;;43.50;35.72;;;;;;;;;;2079788;28;20254;-63
2021/06/27 00:29:00;;;;;;;40.95;36.30;;;;;;;;;;2076167;28;20200;-61
2021/06/27 00:30:00;;;;;;;44.35;37.63;;;;;;;;;;2079750;28;20185;-57
2021/06/27 00:31:03;;;;;;;42.90;37.13;;;;;;;;;;2075950;28;20169;-59
2021/06/27 00:32:03;;;;;;;40.88;36.13;;;;;;;;;;2078920;28;20644;-57
2021/06/27 00:33:04;;;;;;;40.92;36.13;;;;;;;;;;2071911;28;20169;-59
2021/06/27 00:34:05;;;;;;;41.13;35.83;;;;;;;;;;2075508;28;20214;-57
2021/06/27 00:35:07;;;;;;;45.55;36.70;;;;;;;;;;2077987;28;20227;-58
2021/06/27 00:36:08;;;;;;;42.58;35.85;;;;;;;;;;2083413;28;20192;-57
2021/06/27 00:37:09;;;;;;;47.97;37.85;;;;;;;;;;2080649;28;20191;-62
2021/06/27 00:38:09;;;;;;;41.70;36.53;;;;;;;;;;2078196;28;20671;-58
2021/06/27 00:39:09;;;;;;;45.17;36.42;;;;;;;;;;2079160;28;20184;-57
2021/06/27 00:40:11;;;;;;;40.92;36.00;;;;;;;;;;2077672;28;20631;-59
2021/06/27 00:41:12;;;;;;;42.10;37.60;;;;;;;;;;2078676;28;20252;-55
2021/06/27 00:42:12;;;;;;;45.05;37.13;;;;;;;;;;2077900;28;20633;-55
2021/06/27 00:43:12;;;;;;;42.58;37.97;;;;;;;;;;2078217;28;20209;-53
2021/06/27 00:44:13;;;;;;;41.67;37.00;;;;;;;;;;2077076;28;20188;-58
2021/06/27 00:45:14;;;;;;;43.97;36.30;;;;;;;;;;2069168;28;20166;-57
2021/06/27 00:46:14;;;;;;;42.45;35.70;;;;;;;;;;2076441;28;20259;-56
2021/06/27 00:47:27;;;;;;;42.50;35.75;;;;;;;;;;2077795;28;20653;-56
2021/06/27 00:48:28;;;;;;;40.08;35.17;;;;;;;;;;2065408;28;20170;-54
2021/06/27 00:49:28;;;;;;;41.42;36.10;;;;;;;;;;2074328;28;20178;-53
2021/06/27 00:50:32;;;;;;;50.70;39.35;;;;;;;;;;2077009;28;20207;-59
2021/06/27 00:51:33;;;;;;;45.70;38.05;;;;;;;;;;2072910;28;20192;-54
2021/06/27 00:52:33;;;;;;;43.72;36.63;;;;;;;;;;2078090;28;20176;-56
2021/06/27 00:53:33;;;;;;;41.17;36.00;;;;;;;;;;2066178;28;20193;-58
2021/06/27 00:54:33;;;;;;;42.03;36.42;;;;;;;;;;2078657;28;20218;-55
2021/06/27 00:55:34;;;;;;;47.35;38.78;;;;;;;;;;2072215;28;20231;-55
2021/06/27 00:56:34;;;;;;;44.17;36.20;;;;;;;;;;2078062;28;20180;-55
2021/06/27 00:57:36;;;;;;;45.22;37.83;;;;;;;;;;2071569;28;20177;-55
2021/06/27 00:58:36;;;;;;;44.13;36.92;;;;;;;;;;2079841;28;20702;-54
2021/06/27 00:59:36;;;;;;;39.33;35.13;;;;;;;;;;2070900;28;20231;-55
2021/06/27 01:00:40;;;;;;;40.83;36.22;;;;;;;;;;2075120;28;20227;-52
2021/06/27 01:01:41;;;;;;;39.58;34.95;;;;;;;;;;2081299;28;20207;-54
2021/06/27 01:02:41;;;;;;;42.58;35.38;;;;;;;;;;2073910;28;20239;-54
2021/06/27 01:03:41;;;;;;;43.92;36.47;;;;;;;;;;2073075;28;20521;-57
2021/06/27 01:04:42;;;;;;;46.65;35.55;;;;;;;;;;2072531;28;20193;-60
2021/06/27 01:05:42;;;;;;;44.55;38.05;;;;;;;;;;2082055;28;20192;-59
2021/06/27 01:06:42;;;;;;;44.10;37.83;;;;;;;;;;2069758;28;20279;-57
2021/06/27 01:07:43;;;;;;;41.58;37.00;;;;;;;;;;2082127;28;20180;-53
2021/06/27 01:08:43;;;;;;;39.90;35.50;;;;;;;;;;2067087;28;20666;-60
2021/06/27 01:09:43;;;;;;;44.58;37.88;;;;;;;;;;2075593;28;20180;-57
2021/06/27 01:10:47;;;;;;;42.45;37.80;;;;;;;;;;2081169;28;20311;-57
2021/06/27 01:11:47;;;;;;;47.63;39.33;;;;;;;;;;2066025;28;20561;-56
2021/06/27 01:12:48;;;;;;;49.25;40.15;;;;;;;;;;2069995;28;20182;-55
2021/06/27 01:13:48;;;;;;;44.00;38.90;;;;;;;;;;2076097;28;20165;-57
2021/06/27 01:14:48;;;;;;;49.35;39.90;;;;;;;;;;2080311;28;20891;-56
2021/06/27 01:15:49;;;;;;;48.22;38.97;;;;;;;;;;2073553;28;20208;-59
2021/06/27 01:16:50;;;;;;;44.83;38.67;;;;;;;;;;2080968;28;20183;-57
2021/06/27 01:17:51;;;;;;;49.72;41.60;;;;;;;;;;2068279;28;20256;-58
2021/06/27 01:18:53;;;;;;;50.55;41.72;;;;;;;;;;2080804;28;20184;-57
2021/06/27 01:19:53;;;;;;;50.75;41.15;;;;;;;;;;2067966;28;20173;-59
2021/06/27 01:20:53;;;;;;;47.95;40.45;;;;;;;;;;2071688;28;20175;-59
2021/06/27 01:21:53;;;;;;;50.35;41.90;;;;;;;;;;2066016;28;20610;-53
2021/06/27 01:22:55;;;;;;;48.95;41.65;;;;;;;;;;2067147;28;20185;-56
2021/06/27 01:23:55;;;;;;;53.15;43.55;;;;;;;;;;2074429;28;20590;-60
2021/06/27 01:24:55;;;;;;;50.65;42.60;;;;;;;;;;2074412;28;20213;-60
2021/06/27 01:25:55;;;;;;;58.25;43.80;;;;;;;;;;2080309;28;20180;-58
2021/06/27 01:26:56;;;;;;;51.90;43.17;;;;;;;;;;2076110;28;20176;-59
2021/06/27 01:27:56;;;;;;;52.33;43.63;;;;;;;;;;2087471;28;20245;-58
2021/06/27 01:28:58;;;;;;;52.83;44.25;;;;;;;;;;2074964;28;20595;-57
2021/06/27 01:29:59;;;;;;;54.13;42.67;;;;;;;;;;2082185;28;20238;-58
2021/06/27 01:30:59;;;;;;;50.20;41.55;;;;;;;;;;2080745;28;20177;-58
2021/06/27 01:31:59;;;;;;;48.78;40.25;;;;;;;;;;2081156;28;20619;-58
2021/06/27 01:33:02;;;;;;;47.08;39.80;;;;;;;;;;2082312;28;20179;-57
2021/06/27 01:34:02;;;;;;;50.05;40.20;;;;;;;;;;2082072;28;20227;-59
2021/06/27 01:35:03;;;;;;;48.78;41.45;;;;;;;;;;2081330;28;20243;-56
2021/06/27 01:36:03;;;;;;;45.47;39.92;;;;;;;;;;2082132;28;20259;-55
2021/06/27 01:37:04;;;;;;;54.58;43.03;;;;;;;;;;2082218;28;20315;-57
2021/06/27 01:38:04;;;;;;;52.00;43.45;;;;;;;;;;2082068;28;20251;-57
2021/06/27 01:39:05;;;;;;;54.47;43.00;;;;;;;;;;2082232;28;20234;-57
2021/06/27 01:40:05;;;;;;;53.75;42.33;;;;;;;;;;2073283;28;20212;-56
2021/06/27 01:41:06;;;;;;;54.38;43.05;;;;;;;;;;2073040;28;20786;-54
2021/06/27 01:42:06;;;;;;;52.03;42.38;;;;;;;;;;2082195;28;20680;-57
2021/06/27 01:43:18;;;;;;;53.67;42.67;;;;;;;;;;2082328;28;20608;-57
2021/06/27 01:44:19;;;;;;;54.28;41.78;;;;;;;;;;2082182;28;20202;-58
2021/06/27 01:45:21;;;;;;;48.90;41.72;;;;;;;;;;2081722;28;20187;-56
2021/06/27 01:46:21;;;;;;;48.63;39.72;;;;;;;;;;2081466;28;20180;-57
2021/06/27 01:47:25;;;;;;;51.08;41.42;;;;;;;;;;2082375;28;20204;-54
2021/06/27 01:48:26;;;;;;;48.97;40.80;;;;;;;;;;2077728;28;20678;-60
2021/06/27 01:49:26;;;;;;;49.30;42.00;;;;;;;;;;2079189;28;20184;-58
2021/06/27 01:50:27;;;;;;;52.17;42.85;;;;;;;;;;2075187;28;20181;-57
2021/06/27 01:51:27;;;;;;;50.03;42.03;;;;;;;;;;2077084;28;20167;-57
2021/06/27 01:52:28;;;;;;;51.65;42.35;;;;;;;;;;2077377;28;20211;-56
2021/06/27 01:53:30;;;;;;;50.47;42.90;;;;;;;;;;2071039;28;21331;-56
2021/06/27 01:54:30;;;;;;;54.40;44.72;;;;;;;;;;2077307;28;20227;-57
2021/06/27 01:55:31;;;;;;;55.22;46.03;;;;;;;;;;2071674;28;20178;-57
2021/06/27 01:56:31;;;;;;;55.28;44.97;;;;;;;;;;2078578;28;20172;-55
2021/06/27 01:57:31;;;;;;;58.15;46.80;;;;;;;;;;2074363;28;20182;-59
2021/06/27 01:58:45;;;;;;;57.83;45.72;;;;;;;;;;2079511;28;20164;-59
2021/06/27 01:59:47;;;;;;;61.45;47.00;;;;;;;;;;2081513;28;20176;-58
2021/06/27 02:00:48;;;;;;;59.03;47.42;;;;;;;;;;2074573;28;20562;-55
2021/06/27 02:01:48;;;;;;;59.45;45.80;;;;;;;;;;2077658;28;20156;-54
2021/06/27 02:02:49;;;;;;;53.30;43.75;;;;;;;;;;2080631;28;20172;-57
2021/06/27 02:03:50;;;;;;;57.92;45.63;;;;;;;;;;2069769;28;20663;-57
2021/06/27 02:04:50;;;;;;;53.58;44.47;;;;;;;;;;2074588;28;20169;-57
2021/06/27 02:05:50;;;;;;;55.58;46.80;;;;;;;;;;2080679;28;20211;-61
2021/06/27 02:06:50;;;;;;;60.17;47.35;;;;;;;;;;2073722;28;20287;-57
2021/06/27 02:07:51;;;;;;;61.35;47.15;;;;;;;;;;2073875;28;20177;-57
2021/06/27 02:08:54;;;;;;;61.75;47.78;;;;;;;;;;2076602;28;20723;-56
2021/06/27 02:09:54;;;;;;;60.95;48.33;;;;;;;;;;2080499;28;20175;-60
2021/06/27 02:10:54;;;;;;;56.33;45.88;;;;;;;;;;2074500;28;20675;-55
2021/06/27 02:11:55;;;;;;;58.80;46.88;;;;;;;;;;2076176;28;20169;-56
2021/06/27 02:12:56;;;;;;;55.72;43.47;;;;;;;;;;2073883;28;20666;-54
2021/06/27 02:13:56;;;;;;;54.05;44.10;;;;;;;;;;2079856;28;20172;-56
2021/06/27 02:14:56;;;;;;;55.47;45.08;;;;;;;;;;2074597;28;20200;-58
2021/06/27 02:15:57;;;;;;;60.33;45.47;;;;;;;;;;2073126;28;20209;-59
2021/06/27 02:16:57;;;;;;;53.30;43.40;;;;;;;;;;2079076;28;20731;-55
2021/06/27 02:18:06;;;;;;;55.13;43.67;;;;;;;;;;2070126;28;20189;-56
2021/06/27 02:19:07;;;;;;;50.72;41.90;;;;;;;;;;2077865;28;20244;-65
2021/06/27 02:20:07;;;;;;;57.00;45.00;;;;;;;;;;2075979;28;20204;-55
2021/06/27 02:21:09;;;;;;;46.40;41.03;;;;;;;;;;2077060;28;20248;-60
2021/06/27 02:22:09;;;;;;;54.95;43.00;;;;;;;;;;2076449;28;20266;-57
2021/06/27 02:23:10;;;;;;;52.58;43.58;;;;;;;;;;2076724;28;20173;-57
2021/06/27 02:24:10;;;;;;;53.78;42.92;;;;;;;;;;2071859;28;20285;-57
2021/06/27 02:25:10;;;;;;;51.80;43.83;;;;;;;;;;2076371;28;20169;-58
2021/06/27 02:26:11;;;;;;;53.67;43.03;;;;;;;;;;2071398;28;20736;-59
2021/06/27 02:27:12;;;;;;;54.22;42.50;;;;;;;;;;2075180;28;20202;-57
2021/06/27 02:28:12;;;;;;;56.97;44.90;;;;;;;;;;2072470;28;20172;-57
2021/06/27 02:29:12;;;;;;;59.38;46.30;;;;;;;;;;2076561;28;20197;-57
2021/06/27 02:30:13;;;;;;;56.22;43.75;;;;;;;;;;2076257;28;20176;-58
2021/06/27 02:31:14;;;;;;;55.80;44.78;;;;;;;;;;2073829;28;20226;-59
2021/06/27 02:32:14;;;;;;;54.00;45.92;;;;;;;;;;2076325;28;20215;-57
2021/06/27 02:33:15;;;;;;;61.25;46.35;;;;;;;;;;2077349;28;20243;-56
2021/06/27 02:34:16;;;;;;;58.25;47.30;;;;;;;;;;2075571;28;20188;-58
2021/06/27 02:35:17;;;;;;;61.53;46.88;;;;;;;;;;2077107;28;20682;-57
2021/06/27 02:36:17;;;;;;;59.08;47.45;;;;;;;;;;2075181;28;20176;-57
2021/06/27 02:37:18;;;;;;;58.90;46.00;;;;;;;;;;2074250;28;20259;-59
2021/06/27 02:38:18;;;;;;;59.63;45.80;;;;;;;;;;2077160;28;20200;-61
2021/06/27 02:39:18;;;;;;;57.15;46.85;;;;;;;;;;2072047;28;20262;-59
2021/06/27 02:40:19;;;;;;;58.03;47.47;;;;;;;;;;2074692;28;20633;-59
2021/06/27 02:41:20;;;;;;;56.67;46.17;;;;;;;;;;2075874;28;20199;-58
2021/06/27 02:42:20;;;;;;;58.58;46.13;;;;;;;;;;2074380;28;20161;-58
2021/06/27 02:43:21;;;;;;;52.75;45.00;;;;;;;;;;2077715;28;20191;-59
2021/06/27 02:44:21;;;;;;;61.60;47.25;;;;;;;;;;2075330;28;20193;-54
2021/06/27 02:45:21;;;;;;;57.95;47.22;;;;;;;;;;2068986;28;20185;-59
2021/06/27 02:46:22;;;;;;;60.70;48.22;;;;;;;;;;2071108;28;20169;-58
2021/06/27 02:47:22;;;;;;;61.25;48.92;;;;;;;;;;2074675;28;20649;-59
2021/06/27 02:48:23;;;;;;;62.10;48.33;;;;;;;;;;2071476;28;20186;-60
2021/06/27 02:49:23;;;;;;;61.70;48.65;;;;;;;;;;2074929;28;20168;-53
2021/06/27 02:50:24;;;;;;;62.80;48.83;;;;;;;;;;2070446;28;20632;-52
2021/06/27 02:51:24;;;;;;;64.70;50.42;;;;;;;;;;2075036;28;20169;-52
2021/06/27 02:52:25;;;;;;;64.25;51.85;;;;;;;;;;2070003;28;20569;-57
2021/06/27 02:53:25;;;;;;;64.90;51.00;;;;;;;;;;2071721;28;20165;-55
2021/06/27 02:54:25;;;;;;;69.05;53.35;;;;;;;;;;2078029;28;20673;-56
2021/06/27 02:55:25;;;;;;;64.60;49.33;;;;;;;;;;2074832;28;20172;-52
2021/06/27 02:56:26;;;;;;;63.65;48.88;;;;;;;;;;2078302;28;20633;-52
2021/06/27 02:57:27;;;;;;;61.53;47.95;;;;;;;;;;2070898;28;20551;-53
2021/06/27 02:58:27;;;;;;;60.15;46.88;;;;;;;;;;2076764;28;20598;-52
2021/06/27 02:59:27;;;;;;;68.22;51.22;;;;;;;;;;2074670;28;20274;-58
2021/06/27 03:00:29;;;;;;;65.13;49.75;;;;;;;;;;2078476;28;20167;-57
2021/06/27 03:01:29;;;;;;;62.80;49.47;;;;;;;;;;2074665;28;20173;-58
2021/06/27 03:02:29;;;;;;;67.70;51.15;;;;;;;;;;2072091;28;20173;-56
2021/06/27 03:03:30;;;;;;;65.32;50.17;;;;;;;;;;2070425;28;20219;-55
2021/06/27 03:04:30;;;;;;;65.85;51.10;;;;;;;;;;2074055;28;20201;-56
2021/06/27 03:05:31;;;;;;;66.63;50.70;;;;;;;;;;2067039;28;20197;-54
2021/06/27 03:06:31;;;;;;;65.05;48.75;;;;;;;;;;2078678;28;20172;-55
2021/06/27 03:07:31;;;;;;;70.45;53.60;;;;;;;;;;2081386;28;20181;-55
2021/06/27 03:08:31;;;;;;;71.32;53.03;;;;;;;;;;2080724;28;20255;-53
2021/06/27 03:09:32;;;;;;;66.95;51.20;;;;;;;;;;2074863;28;20189;-53
2021/06/27 03:10:32;;;;;;;70.45;54.63;;;;;;;;;;2078306;28;20182;-55
2021/06/27 03:11:32;;;;;;;72.32;53.97;;;;;;;;;;2078414;28;20615;-57
2021/06/27 03:12:32;;;;;;;68.57;53.90;;;;;;;;;;2074317;28;20185;-52
2021/06/27 03:13:33;;;;;;;72.03;52.53;;;;;;;;;;2078166;28;20259;-52
2021/06/27 03:14:34;;;;;;;72.07;54.30;;;;;;;;;;2073488;28;20212;-52
2021/06/27 03:15:34;;;;;;;72.43;55.70;;;;;;;;;;2079506;28;20226;-52
2021/06/27 03:16:34;;;;;;;69.72;53.55;;;;;;;;;;2073098;28;20184;-52
2021/06/27 03:17:34;;;;;;;69.30;50.28;;;;;;;;;;2077952;28;20203;-56
2021/06/27 03:18:35;;;;;;;68.00;50.50;;;;;;;;;;2072394;28;20169;-56
2021/06/27 03:19:35;;;;;;;66.30;50.60;;;;;;;;;;2077741;28;20176;-56
2021/06/27 03:20:35;;;;;;;58.83;47.85;;;;;;;;;;2071822;28;20256;-54
2021/06/27 03:21:35;;;;;;;66.93;48.88;;;;;;;;;;2078146;28;20171;-57
2021/06/27 03:22:36;;;;;;;71.50;53.90;;;;;;;;;;2073386;28;20185;-56
2021/06/27 03:23:36;;;;;;;66.03;49.83;;;;;;;;;;2079715;28;20262;-59
2021/06/27 03:24:36;;;;;;;63.22;47.28;;;;;;;;;;2073233;28;20200;-52
2021/06/27 03:25:37;;;;;;;68.22;51.25;;;;;;;;;;2079017;28;20176;-59
2021/06/27 03:26:38;;;;;;;63.83;49.88;;;;;;;;;;2065576;28;20178;-55
2021/06/27 03:27:38;;;;;;;61.55;47.63;;;;;;;;;;2078191;28;20710;-58
2021/06/27 03:28:39;;;;;;;64.38;50.90;;;;;;;;;;2069824;28;20209;-56
2021/06/27 03:29:39;;;;;;;61.03;48.58;;;;;;;;;;2079101;28;20585;-57
2021/06/27 03:30:39;;;;;;;64.68;51.72;;;;;;;;;;2068738;28;20185;-59
2021/06/27 03:31:39;;;;;;;61.35;49.88;;;;;;;;;;2078787;28;20321;-58
2021/06/27 03:32:40;;;;;;;63.78;49.22;;;;;;;;;;2068660;28;20249;-59
2021/06/27 03:33:40;;;;;;;63.72;50.38;;;;;;;;;;2079320;28;20648;-55
2021/06/27 03:34:40;;;;;;;59.45;45.30;;;;;;;;;;2072304;28;20203;-57
2021/06/27 03:35:41;;;;;;;60.00;46.60;;;;;;;;;;2079511;28;20183;-57
2021/06/27 03:36:41;;;;;;;58.70;48.35;;;;;;;;;;2067430;28;20181;-53
2021/06/27 03:38:18;;;;;;;64.07;51.75;;;;;;;;;;2079805;28;20200;-56
2021/06/27 03:39:10;;;;;;;67.97;52.25;;;;;;;;;;2068655;28;20241;-56
2021/06/27 03:40:10;;;;;;;62.67;50.40;;;;;;;;;;2073615;28;20172;-56
2021/06/27 03:41:11;;;;;;;61.85;48.70;;;;;;;;;;2070486;28;20211;-55
2021/06/27 03:42:11;;;;;;;55.03;45.63;;;;;;;;;;2068729;28;20181;-55
2021/06/27 03:43:12;;;;;;;60.25;48.03;;;;;;;;;;2075775;28;20218;-55
2021/06/27 03:44:12;;;;;;;56.67;49.38;;;;;;;;;;2073423;28;20236;-61
2021/06/27 03:45:14;;;;;;;57.38;46.00;;;;;;;;;;2072389;28;20172;-60
2021/06/27 03:46:15;;;;;;;63.03;49.30;;;;;;;;;;2079976;28;20194;-57
2021/06/27 03:47:15;;;;;;;58.67;45.35;;;;;;;;;;2075882;28;20639;-55
2021/06/27 03:48:15;;;;;;;59.38;46.10;;;;;;;;;;2067977;28;20157;-60
2021/06/27 03:49:16;;;;;;;61.95;48.63;;;;;;;;;;2067707;28;20221;-53
2021/06/27 03:50:18;;;;;;;56.25;45.45;;;;;;;;;;2077276;28;20172;-58
2021/06/27 03:51:18;;;;;;;56.00;46.17;;;;;;;;;;2075691;28;20161;-58
2021/06/27 03:52:19;;;;;;;56.92;46.92;;;;;;;;;;2076730;28;20164;-61
2021/06/27 03:53:19;;;;;;;61.00;47.85;;;;;;;;;;2077915;28;20212;-57
2021/06/27 03:54:19;;;;;;;63.78;49.20;;;;;;;;;;2074633;28;20219;-58
2021/06/27 03:55:20;;;;;;;57.92;46.08;;;;;;;;;;2076312;28;20177;-59
2021/06/27 03:56:20;;;;;;;58.83;47.40;;;;;;;;;;2069625;28;20173;-57
2021/06/27 03:57:21;;;;;;;59.72;46.47;;;;;;;;;;2076199;28;20181;-57
2021/06/27 03:58:21;;;;;;;59.63;46.67;;;;;;;;;;2078243;28;20185;-54
2021/06/27 03:59:21;;;;;;;59.42;47.63;;;;;;;;;;2075304;28;20576;-54
2021/06/27 04:00:22;;;;;;;60.83;49.17;;;;;;;;;;2074832;28;20176;-53
2021/06/27 04:01:22;;;;;;;61.20;48.13;;;;;;;;;;2076811;28;20203;-53
2021/06/27 04:02:23;;;;;;;63.50;49.40;;;;;;;;;;2074827;28;20196;-53
2021/06/27 04:03:23;;;;;;;58.03;48.33;;;;;;;;;;2077985;28;20720;-56
2021/06/27 04:04:23;;;;;;;61.20;47.85;;;;;;;;;;2080251;28;20212;-57
2021/06/27 04:05:24;;;;;;;59.70;46.83;;;;;;;;;;2074800;28;20165;-57
2021/06/27 04:06:24;;;;;;;58.60;46.47;;;;;;;;;;2071690;28;20173;-55
2021/06/27 04:07:24;;;;;;;59.85;47.22;;;;;;;;;;2066096;28;20653;-53
2021/06/27 04:08:24;;;;;;;57.10;46.60;;;;;;;;;;2061431;28;20162;-59
2021/06/27 04:09:25;;;;;;;55.15;47.08;;;;;;;;;;2069292;28;20185;-57
2021/06/27 04:10:25;;;;;;;55.70;44.38;;;;;;;;;;2077902;28;20257;-56
2021/06/27 04:11:25;;;;;;;56.08;45.67;;;;;;;;;;2080102;28;20169;-55
2021/06/27 04:12:25;;;;;;;58.42;45.80;;;;;;;;;;2078403;28;20256;-56
2021/06/27 04:13:26;;;;;;;57.97;46.65;;;;;;;;;;2074634;28;20172;-60
2021/06/27 04:14:27;;;;;;;56.30;44.85;;;;;;;;;;2074793;28;20188;-55
2021/06/27 04:15:27;;;;;;;59.83;48.58;;;;;;;;;;2075824;28;20164;-56
2021/06/27 04:16:29;;;;;;;57.97;47.10;;;;;;;;;;2076491;28;20673;-54
2021/06/27 04:17:29;;;;;;;58.55;45.95;;;;;;;;;;2077118;28;20161;-52
2021/06/27 04:18:30;;;;;;;63.40;48.90;;;;;;;;;;2073821;28;20551;-56
2021/06/27 04:19:30;;;;;;;61.03;47.90;;;;;;;;;;2079117;28;20156;-59
2021/06/27 04:20:31;;;;;;;54.95;44.42;;;;;;;;;;2071124;28;20165;-60
2021/06/27 04:21:31;;;;;;;60.05;49.03;;;;;;;;;;2076499;28;20180;-58
2021/06/27 04:22:31;;;;;;;59.85;47.83;;;;;;;;;;2074830;28;20169;-59
2021/06/27 04:23:32;;;;;;;57.88;47.08;;;;;;;;;;2074458;28;20631;-56
2021/06/27 04:24:33;;;;;;;54.47;45.83;;;;;;;;;;2078850;28;20203;-57
2021/06/27 04:25:33;;;;;;;56.03;46.00;;;;;;;;;;2065678;28;20169;-57
2021/06/27 04:26:34;;;;;;;54.33;44.70;;;;;;;;;;2074487;28;20247;-58
2021/06/27 04:27:34;;;;;;;60.05;47.40;;;;;;;;;;2077497;28;20770;-56
2021/06/27 04:28:34;;;;;;;57.03;47.78;;;;;;;;;;2073471;28;20181;-59
2021/06/27 04:29:34;;;;;;;56.67;46.55;;;;;;;;;;2074525;28;20173;-56
2021/06/27 04:30:35;;;;;;;57.95;48.53;;;;;;;;;;2079112;28;20206;-57
2021/06/27 04:31:36;;;;;;;59.53;49.20;;;;;;;;;;2070708;28;20251;-60
2021/06/27 04:32:36;;;;;;;60.47;49.60;;;;;;;;;;2079986;28;20176;-55
2021/06/27 04:33:36;;;;;;;55.83;46.50;;;;;;;;;;2069233;28;20575;-56
2021/06/27 04:34:37;;;;;;;64.15;48.60;;;;;;;;;;2079770;28;20197;-53
2021/06/27 04:35:38;;;;;;;58.28;47.67;;;;;;;;;;2068552;28;20213;-55
2021/06/27 04:36:39;;;;;;;56.03;47.15;;;;;;;;;;2080658;28;20180;-52
2021/06/27 04:37:39;;;;;;;56.42;47.42;;;;;;;;;;2066973;28;20184;-56
2021/06/27 04:38:39;;;;;;;54.53;45.67;;;;;;;;;;2080876;28;20164;-58
2021/06/27 04:39:39;;;;;;;59.72;48.05;;;;;;;;;;2074413;28;20196;-59
2021/06/27 04:40:40;;;;;;;58.50;47.05;;;;;;;;;;2081934;28;20169;-59
2021/06/27 04:41:42;;;;;;;59.03;47.45;;;;;;;;;;2081828;28;20191;-60
2021/06/27 04:42:42;;;;;;;58.97;47.17;;;;;;;;;;2066663;28;20189;-60
2021/06/27 04:43:42;;;;;;;56.30;46.55;;;;;;;;;;2066209;28;20244;-55
2021/06/27 04:44:43;;;;;;;55.20;45.72;;;;;;;;;;2075050;28;20180;-54
2021/06/27 04:45:43;;;;;;;49.67;42.13;;;;;;;;;;2074510;28;20169;-56
2021/06/27 04:46:43;;;;;;;49.33;42.95;;;;;;;;;;2074986;28;20181;-55
2021/06/27 04:47:44;;;;;;;56.88;46.50;;;;;;;;;;2075251;28;20179;-55
2021/06/27 04:48:44;;;;;;;61.90;50.15;;;;;;;;;;2075275;28;20263;-58
2021/06/27 04:49:44;;;;;;;58.85;48.78;;;;;;;;;;2074641;28;20668;-58
2021/06/27 04:50:45;;;;;;;58.38;48.83;;;;;;;;;;2074769;28;20199;-57
2021/06/27 04:51:45;;;;;;;57.10;46.67;;;;;;;;;;2074834;28;20200;-55
2021/06/27 04:52:51;;;;;;;64.63;51.15;;;;;;;;;;2074491;28;20192;-54
2021/06/27 04:53:51;;;;;;;60.83;49.47;;;;;;;;;;2074339;28;20172;-56
2021/06/27 04:54:51;;;;;;;59.38;49.33;;;;;;;;;;2082559;23;20218;-62
2021/06/27 04:55:52;;;;;;;59.17;49.63;;;;;;;;;;2066994;28;20562;-63
2021/06/27 04:56:52;;;;;;;56.47;47.53;;;;;;;;;;2065904;28;20558;-63
2021/06/27 04:57:52;;;;;;;54.72;46.58;;;;;;;;;;2065715;28;20265;-63
2021/06/27 04:58:52;;;;;;;60.05;50.63;;;;;;;;;;2073855;28;20299;-63
2021/06/27 04:59:53;;;;;;;57.63;48.70;;;;;;;;;;2066729;28;20252;-64
2021/06/27 05:00:53;;;;;;;57.38;47.50;;;;;;;;;;2066205;28;20186;-63
2021/06/27 05:01:53;;;;;;;57.28;48.30;;;;;;;;;;2066169;28;20630;-64
2021/06/27 05:02:53;;;;;;;55.45;46.67;;;;;;;;;;2066320;28;20173;-64
2021/06/27 05:03:54;;;;;;;57.00;47.47;;;;;;;;;;2066697;28;20201;-64
2021/06/27 05:04:54;;;;;;;54.53;46.72;;;;;;;;;;2065816;28;20251;-64
2021/06/27 05:05:54;;;;;;;47.83;41.95;;;;;;;;;;2065320;28;20339;-65
2021/06/27 05:06:54;;;;;;;58.08;46.70;;;;;;;;;;2066540;28;20190;-64
2021/06/27 05:07:55;;;;;;;53.67;45.03;;;;;;;;;;2066373;28;20682;-64
2021/06/27 05:08:55;;;;;;;54.72;46.88;;;;;;;;;;2066481;28;20665;-64
2021/06/27 05:09:56;;;;;;;53.95;45.05;;;;;;;;;;2066398;28;20185;-64
2021/06/27 05:10:58;;;;;;;51.72;44.33;;;;;;;;;;2066428;28;20549;-64
2021/06/27 05:11:58;;;;;;;49.10;40.92;;;;;;;;;;2066270;28;20162;-64
2021/06/27 05:12:59;;;;;;;53.03;44.15;;;;;;;;;;2066381;28;20161;-64
2021/06/27 05:13:59;;;;;;;50.90;42.67;;;;;;;;;;2066146;28;20177;-65
2021/06/27 05:14:59;;;;;;;49.25;42.70;;;;;;;;;;2065964;28;20221;-65
2021/06/27 05:16:00;;;;;;;44.53;39.47;;;;;;;;;;2066039;28;20686;-65
2021/06/27 05:17:00;;;;;;;46.70;41.08;;;;;;;;;;2065958;28;20196;-65
2021/06/27 05:18:00;;;;;;;50.05;43.17;;;;;;;;;;2065465;28;20662;-65
2021/06/27 05:19:00;;;;;;;51.70;42.05;;;;;;;;;;2065881;28;20170;-64
2021/06/27 05:20:01;;;;;;;50.10;43.08;;;;;;;;;;2065670;28;20673;-64
2021/06/27 05:21:01;;;;;;;54.80;43.40;;;;;;;;;;2065774;28;20562;-64
2021/06/27 05:22:01;;;;;;;50.20;41.88;;;;;;;;;;2066340;28;20193;-64
2021/06/27 05:23:02;;;;;;;46.50;40.65;;;;;;;;;;2066267;28;20244;-64
2021/06/27 05:24:02;;;;;;;48.35;42.55;;;;;;;;;;2067295;28;20185;-64
2021/06/27 05:25:03;;;;;;;50.17;43.47;;;;;;;;;;2067371;28;20181;-64
2021/06/27 05:26:03;;;;;;;49.53;43.85;;;;;;;;;;2068267;28;20237;-63
2021/06/27 05:27:04;;;;;;;46.55;40.70;;;;;;;;;;2067223;28;20272;-65
2021/06/27 05:28:04;;;;;;;56.20;46.55;;;;;;;;;;2067138;28;20580;-64
2021/06/27 05:29:05;;;;;;;50.53;41.03;;;;;;;;;;2068607;28;20198;-64
2021/06/27 05:30:05;;;;;;;49.38;41.40;;;;;;;;;;2067403;28;20176;-64
2021/06/27 05:31:05;;;;;;;46.35;39.78;;;;;;;;;;2065816;28;20684;-64
2021/06/27 05:32:06;;;;;;;48.65;41.35;;;;;;;;;;2058200;28;20184;-64
2021/06/27 05:33:06;;;;;;;46.60;40.50;;;;;;;;;;2057616;28;20188;-64
2021/06/27 05:34:07;;;;;;;45.45;39.65;;;;;;;;;;2066609;28;20173;-64
2021/06/27 05:35:07;;;;;;;46.42;38.30;;;;;;;;;;2065731;28;20211;-63
2021/06/27 05:36:08;;;;;;;44.75;39.75;;;;;;;;;;2068570;28;20201;-65
2021/06/27 05:37:08;;;;;;;43.47;38.80;;;;;;;;;;2069523;28;20562;-64
2021/06/27 05:38:08;;;;;;;43.42;38.78;;;;;;;;;;2069675;28;20592;-64
2021/06/27 05:39:09;;;;;;;45.78;39.00;;;;;;;;;;2068417;28;20569;-63
2021/06/27 05:40:10;;;;;;;43.05;36.28;;;;;;;;;;2064526;28;20554;-65
2021/06/27 05:41:10;;;;;;;41.10;36.63;;;;;;;;;;2057862;28;20171;-65
2021/06/27 05:42:11;;;;;;;40.63;36.10;;;;;;;;;;2048749;28;20210;-65
2021/06/27 05:43:11;;;;;;;42.50;37.08;;;;;;;;;;2064102;28;20169;-65
2021/06/27 05:44:12;;;;;;;43.53;37.38;;;;;;;;;;2068678;28;20593;-65
2021/06/27 05:45:12;;;;;;;42.10;37.40;;;;;;;;;;2065700;28;20575;-65
2021/06/27 05:46:14;;;;;;;43.20;35.13;;;;;;;;;;2065441;28;20701;-64
2021/06/27 05:47:14;;;;;;;43.20;38.53;;;;;;;;;;2068918;28;20181;-65
2021/06/27 05:48:15;;;;;;;40.75;36.08;;;;;;;;;;2074148;28;20672;-65
2021/06/27 05:49:15;;;;;;;45.22;37.58;;;;;;;;;;2069263;28;20173;-65
2021/06/27 05:50:15;;;;;;;42.00;36.28;;;;;;;;;;2068039;28;20185;-66
2021/06/27 05:51:16;;;;;;;38.15;34.22;;;;;;;;;;2068628;28;20165;-65
2021/06/27 05:52:16;;;;;;;40.13;35.90;;;;;;;;;;2068656;28;20259;-65
2021/06/27 05:53:17;;;;;;;39.22;34.97;;;;;;;;;;2066915;28;20178;-64